createdAt,value
2022-10-17T00:02:46.661Z,15.30
2022-10-17T00:05:13.661Z,15.30
2022-10-17T00:07:40.624Z,15.30
2022-10-17T00:10:08.205Z,15.30
2022-10-17T00:12:35.691Z,15.20
2022-10-17T00:15:05.370Z,15.10
2022-10-17T00:17:32.455Z,15.10
2022-10-17T00:20:02.800Z,15.00
2022-10-17T00:22:29.807Z,15.00
2022-10-17T00:24:56.776Z,14.90
2022-10-17T00:27:23.750Z,14.90
2022-10-17T00:29:52.130Z,14.90
2022-10-17T00:32:19.912Z,14.90
2022-10-17T00:34:47.223Z,14.90
2022-10-17T00:37:14.230Z,14.90
2022-10-17T00:39:41.171Z,14.90
2022-10-17T00:42:12.832Z,14.90
2022-10-17T00:44:44.161Z,14.90
2022-10-17T00:47:16.536Z,14.80
2022-10-17T00:49:43.584Z,14.80
2022-10-17T00:52:15.581Z,14.80
2022-10-17T00:54:49.295Z,14.80
2022-10-17T00:57:17.679Z,14.80
2022-10-17T00:59:48.831Z,14.70
2022-10-17T01:02:19.028Z,14.70
2022-10-17T01:04:50.154Z,14.60
2022-10-17T01:07:17.292Z,14.60
2022-10-17T01:09:47.031Z,14.50
2022-10-17T01:12:25.135Z,14.40
2022-10-17T01:14:52.305Z,14.40
2022-10-17T01:17:58.113Z,14.30
2022-10-17T01:21:07.504Z,14.20
2022-10-17T01:24:13.378Z,14.10
2022-10-17T01:27:19.938Z,14.10
2022-10-17T01:30:28.898Z,14.00
2022-10-17T01:33:28.863Z,13.90
2022-10-17T01:36:19.447Z,13.80
2022-10-17T01:38:53.616Z,13.80
2022-10-17T01:41:39.485Z,13.70
2022-10-17T01:44:21.456Z,13.70
2022-10-17T01:46:58.319Z,13.70
2022-10-17T01:49:29.763Z,13.60
2022-10-17T01:52:15.109Z,13.60
2022-10-17T01:54:47.487Z,13.50
2022-10-17T01:57:35.988Z,13.50
2022-10-17T02:00:09.164Z,13.40
2022-10-17T02:02:42.437Z,13.40
2022-10-17T02:05:10.122Z,13.30
2022-10-17T02:07:37.134Z,13.40
2022-10-17T02:10:12.592Z,13.30
2022-10-17T02:13:05.911Z,13.30
2022-10-17T02:15:59.459Z,13.30
2022-10-17T02:18:38.502Z,13.30
2022-10-17T02:21:34.285Z,13.30
2022-10-17T02:24:39.336Z,13.30
2022-10-17T02:27:13.977Z,13.20
2022-10-17T02:29:55.742Z,13.20
2022-10-17T02:32:35.563Z,13.20
2022-10-17T02:35:03.895Z,13.20
2022-10-17T02:37:32.072Z,13.20
2022-10-17T02:40:01.609Z,13.20
2022-10-17T02:42:29.544Z,13.20
2022-10-17T02:45:01.177Z,13.20
2022-10-17T02:47:35.122Z,13.20
2022-10-17T02:50:11.793Z,13.20
2022-10-17T02:52:58.211Z,13.20
2022-10-17T02:55:41.065Z,13.10
2022-10-17T02:58:16.717Z,13.10
2022-10-17T03:00:44.912Z,13.00
2022-10-17T03:03:25.448Z,13.00
2022-10-17T03:05:53.511Z,13.00
2022-10-17T03:08:24.442Z,13.00
2022-10-17T03:10:52.043Z,12.90
2022-10-17T03:13:19.493Z,12.90
2022-10-17T03:15:46.897Z,12.90
2022-10-17T03:18:14.340Z,12.80
2022-10-17T03:20:41.585Z,12.80
2022-10-17T03:23:08.939Z,12.80
2022-10-17T03:25:36.885Z,12.90
2022-10-17T03:28:05.648Z,12.90
2022-10-17T03:30:33.897Z,12.90
2022-10-17T03:33:01.236Z,12.90
2022-10-17T03:35:28.281Z,13.00
2022-10-17T03:37:56.620Z,12.90
2022-10-17T03:40:25.880Z,12.90
2022-10-17T03:42:53.536Z,12.90
2022-10-17T03:45:20.518Z,12.90
2022-10-17T03:47:48.407Z,12.90
2022-10-17T03:50:15.894Z,13.00
2022-10-17T03:52:48.461Z,12.90
2022-10-17T03:55:16.485Z,12.90
2022-10-17T03:57:45.488Z,12.90
2022-10-17T04:00:13.879Z,12.90
2022-10-17T04:02:51.054Z,12.80
2022-10-17T04:05:19.371Z,12.80
2022-10-17T04:07:47.375Z,12.80
2022-10-17T04:10:16.430Z,12.80
2022-10-17T04:12:43.623Z,12.80
2022-10-17T04:15:11.054Z,12.70
2022-10-17T04:17:38.454Z,12.70
2022-10-17T04:20:07.560Z,12.70
2022-10-17T04:22:34.553Z,12.70
2022-10-17T04:25:01.756Z,12.70
2022-10-17T04:27:36.856Z,12.70
2022-10-17T04:30:04.328Z,12.70
2022-10-17T04:32:37.643Z,12.70
2022-10-17T04:35:22.904Z,12.70
2022-10-17T04:37:57.235Z,12.70
2022-10-17T04:40:33.416Z,12.70
2022-10-17T04:43:00.431Z,12.70
2022-10-17T04:45:34.603Z,12.70
2022-10-17T04:48:03.829Z,12.60
2022-10-17T04:50:30.892Z,12.60
2022-10-17T04:53:18.844Z,12.60
2022-10-17T04:55:46.149Z,12.60
2022-10-17T04:58:13.215Z,12.60
2022-10-17T05:00:40.396Z,12.50
2022-10-17T05:03:27.667Z,12.50
2022-10-17T05:05:54.853Z,12.50
2022-10-17T05:08:22.562Z,12.50
2022-10-17T05:10:50.892Z,12.50
2022-10-17T05:13:19.214Z,12.50
2022-10-17T05:15:46.226Z,12.40
2022-10-17T05:18:13.405Z,12.50
2022-10-17T05:20:42.575Z,12.60
2022-10-17T05:23:10.206Z,12.60
2022-10-17T05:25:40.857Z,12.60
2022-10-17T05:28:07.939Z,12.70
2022-10-17T05:30:36.807Z,12.70
2022-10-17T05:33:07.060Z,12.80
2022-10-17T05:35:34.357Z,12.80
2022-10-17T05:38:01.827Z,12.80
2022-10-17T05:40:30.997Z,12.80
2022-10-17T05:42:59.267Z,12.80
2022-10-17T05:45:26.430Z,12.80
2022-10-17T05:47:53.436Z,12.80
2022-10-17T05:50:25.343Z,12.80
2022-10-17T05:53:03.815Z,12.80
2022-10-17T05:55:32.482Z,12.80
2022-10-17T05:58:03.538Z,12.80
2022-10-17T06:00:35.778Z,12.70
2022-10-17T06:03:02.897Z,12.70
2022-10-17T06:05:29.945Z,12.70
2022-10-17T06:07:59.608Z,12.70
2022-10-17T06:11:34.319Z,12.70
2022-10-17T06:14:01.427Z,12.80
2022-10-17T06:16:29.884Z,12.80
2022-10-17T06:18:56.865Z,12.80
2022-10-17T06:21:26.543Z,12.90
2022-10-17T06:24:00.955Z,12.90
2022-10-17T06:26:32.096Z,13.00
2022-10-17T06:28:59.317Z,13.00
2022-10-17T06:31:30.579Z,13.10
2022-10-17T06:33:58.151Z,13.10
2022-10-17T06:36:25.142Z,13.10
2022-10-17T06:38:52.121Z,13.10
2022-10-17T06:41:25.352Z,13.20
2022-10-17T06:43:54.164Z,13.30
2022-10-17T06:46:37.240Z,13.30
2022-10-17T06:49:06.973Z,13.40
2022-10-17T06:51:56.810Z,13.50
2022-10-17T06:54:33.104Z,13.50
2022-10-17T06:57:05.841Z,13.50
2022-10-17T06:59:46.507Z,13.60
2022-10-17T07:02:24.339Z,13.60
2022-10-17T07:04:52.798Z,13.70
2022-10-17T07:07:19.789Z,13.80
2022-10-17T07:09:46.845Z,13.80
2022-10-17T07:12:15.568Z,13.90
2022-10-17T07:14:47.323Z,13.90
2022-10-17T07:17:14.370Z,14.00
2022-10-17T07:19:43.573Z,14.10
2022-10-17T07:22:12.070Z,14.10
2022-10-17T07:24:41.838Z,14.30
2022-10-17T07:27:18.109Z,14.40
2022-10-17T07:29:45.384Z,14.50
2022-10-17T07:32:19.083Z,14.60
2022-10-17T07:34:46.139Z,14.70
2022-10-17T07:37:13.228Z,14.80
2022-10-17T07:39:45.780Z,14.90
2022-10-17T07:42:14.511Z,15.00
2022-10-17T07:44:41.681Z,15.20
2022-10-17T07:47:09.376Z,15.20
2022-10-17T07:49:42.610Z,15.30
2022-10-17T07:52:16.261Z,15.50
2022-10-17T07:54:43.845Z,15.60
2022-10-17T07:57:11.047Z,15.70
2022-10-17T07:59:38.662Z,15.80
2022-10-17T08:02:08.097Z,16.00
2022-10-17T08:04:36.493Z,16.20
2022-10-17T08:07:19.663Z,16.30
2022-10-17T08:09:48.959Z,16.50
2022-10-17T08:12:16.437Z,16.70
2022-10-17T08:14:44.389Z,16.80
2022-10-17T08:17:11.300Z,17.00
2022-10-17T08:19:40.435Z,17.20
2022-10-17T08:22:08.284Z,17.30
2022-10-17T08:24:35.433Z,17.50
2022-10-17T08:27:02.532Z,17.80
2022-10-17T08:29:29.686Z,18.00
2022-10-17T08:32:00.827Z,18.20
2022-10-17T08:34:28.826Z,18.40
2022-10-17T08:36:55.858Z,18.60
2022-10-17T08:39:22.916Z,18.80
2022-10-17T08:41:58.674Z,18.90
2022-10-17T08:44:32.623Z,19.10
2022-10-17T08:47:03.999Z,19.30
2022-10-17T08:49:52.585Z,19.40
2022-10-17T08:52:38.155Z,19.60
2022-10-17T08:55:16.674Z,19.80
2022-10-17T08:57:44.554Z,20.00
2022-10-17T09:00:18.918Z,20.20
2022-10-17T09:03:07.098Z,20.30
2022-10-17T09:05:36.891Z,20.60
2022-10-17T09:08:22.536Z,20.80
2022-10-17T09:11:16.614Z,21.00
2022-10-17T09:14:09.833Z,21.20
2022-10-17T09:17:24.429Z,21.50
2022-10-17T09:20:04.544Z,21.70
2022-10-17T09:22:40.796Z,22.00
2022-10-17T09:25:13.620Z,22.10
2022-10-17T09:27:51.493Z,22.20
2022-10-17T09:30:51.818Z,22.30
2022-10-17T09:33:35.243Z,22.50
2022-10-17T09:36:06.047Z,22.70
2022-10-17T09:38:42.741Z,22.90
2022-10-17T09:44:18.463Z,23.30
2022-10-17T09:47:08.757Z,23.60
2022-10-17T09:49:47.062Z,23.80
2022-10-17T09:52:29.118Z,24.00
2022-10-17T09:55:01.163Z,24.20
2022-10-17T09:57:28.474Z,24.20
2022-10-17T10:00:05.227Z,24.30
2022-10-17T10:02:40.955Z,24.50
2022-10-17T10:05:26.177Z,24.60
2022-10-17T10:08:14.310Z,24.80
2022-10-17T10:10:44.765Z,24.90
2022-10-17T10:13:14.865Z,25.00
2022-10-17T10:15:42.809Z,25.10
2022-10-17T10:18:35.003Z,25.00
2022-10-17T10:21:17.070Z,25.00
2022-10-17T10:23:46.348Z,24.90
2022-10-17T10:26:22.448Z,24.90
2022-10-17T10:29:06.243Z,24.90
2022-10-17T10:31:38.972Z,25.00
2022-10-17T10:34:17.984Z,25.00
2022-10-17T10:36:46.415Z,25.10
2022-10-17T10:40:00.821Z,25.10
2022-10-17T10:42:41.583Z,25.00
2022-10-17T10:48:27.831Z,25.00
2022-10-17T10:55:22.505Z,25.10
2022-10-17T10:57:53.347Z,25.30
2022-10-17T11:00:26.169Z,25.30
2022-10-17T11:03:16.132Z,25.30
2022-10-17T11:05:53.495Z,25.50
2022-10-17T11:08:29.212Z,25.60
2022-10-17T11:11:03.811Z,25.60
2022-10-17T11:13:55.739Z,25.60
2022-10-17T11:16:44.776Z,25.60
2022-10-17T11:19:34.071Z,25.60
2022-10-17T11:22:29.300Z,25.70
2022-10-17T11:25:11.672Z,25.70
2022-10-17T11:27:38.968Z,25.60
2022-10-17T11:30:06.804Z,25.60
2022-10-17T11:32:39.964Z,25.40
2022-10-17T11:35:33.591Z,25.40
2022-10-17T11:38:39.983Z,25.30
2022-10-17T11:41:11.405Z,25.30
2022-10-17T11:43:45.378Z,25.30
2022-10-17T11:46:28.387Z,25.30
2022-10-17T11:49:20.090Z,25.40
2022-10-17T11:52:01.252Z,25.40
2022-10-17T11:54:41.222Z,25.50
2022-10-17T11:58:16.670Z,25.50
2022-10-17T12:00:57.971Z,25.50
2022-10-17T12:03:28.010Z,25.50
2022-10-17T12:06:20.664Z,25.60
2022-10-17T12:09:10.471Z,25.60
2022-10-17T12:11:46.079Z,25.70
2022-10-17T12:14:45.898Z,25.80
2022-10-17T12:17:35.541Z,25.90
2022-10-17T12:20:21.544Z,25.90
2022-10-17T12:22:50.377Z,25.90
2022-10-17T12:25:21.246Z,25.90
2022-10-17T12:27:50.245Z,26.00
2022-10-17T12:30:23.892Z,26.00
2022-10-17T12:33:46.613Z,26.10
2022-10-17T12:36:21.279Z,26.20
2022-10-17T12:38:50.862Z,26.40
2022-10-17T12:41:40.920Z,26.40
2022-10-17T12:44:14.268Z,26.40
2022-10-17T12:46:49.288Z,26.40
2022-10-17T12:49:54.530Z,26.40
2022-10-17T12:52:32.076Z,26.40
2022-10-17T12:55:14.013Z,26.30
2022-10-17T12:57:47.606Z,26.30
2022-10-17T13:00:37.521Z,26.30
2022-10-17T13:03:17.624Z,26.40
2022-10-17T13:05:56.875Z,26.40
2022-10-17T13:08:39.043Z,26.40
2022-10-17T13:11:07.972Z,26.50
2022-10-17T13:13:49.390Z,26.50
2022-10-17T13:16:52.843Z,26.50
2022-10-17T13:19:24.297Z,26.50
2022-10-17T13:22:06.462Z,26.50
2022-10-17T13:24:37.344Z,26.50
2022-10-17T13:27:06.323Z,26.40
2022-10-17T13:29:33.744Z,26.30
2022-10-17T13:32:04.046Z,26.20
2022-10-17T13:34:33.251Z,26.00
2022-10-17T13:37:06.902Z,26.00
2022-10-17T13:40:49.036Z,25.90
2022-10-17T13:43:20.820Z,25.90
2022-10-17T13:46:02.316Z,25.80
2022-10-17T13:48:38.384Z,25.60
2022-10-17T13:51:10.351Z,25.50
2022-10-17T13:53:41.456Z,25.50
2022-10-17T13:56:29.179Z,25.40
2022-10-17T13:59:00.298Z,25.30
2022-10-17T14:01:29.376Z,25.20
2022-10-17T14:04:08.305Z,25.10
2022-10-17T14:06:47.985Z,25.00
2022-10-17T14:09:23.561Z,24.90
2022-10-17T14:12:12.919Z,24.80
2022-10-17T14:15:09.347Z,24.80
2022-10-17T14:17:34.839Z,24.60
2022-10-17T14:20:34.531Z,24.50
2022-10-17T14:23:10.781Z,24.30
2022-10-17T14:25:40.712Z,24.00
2022-10-17T14:28:11.652Z,23.80
2022-10-17T14:35:24.369Z,23.50
2022-10-17T14:37:57.428Z,23.30
2022-10-17T14:40:27.353Z,23.10
2022-10-17T14:42:55.241Z,23.10
2022-10-17T14:45:31.826Z,23.00
2022-10-17T14:48:14.886Z,22.90
2022-10-17T14:55:25.371Z,22.70
2022-10-17T14:57:52.569Z,22.60
2022-10-17T15:00:21.267Z,22.50
2022-10-17T15:02:49.711Z,22.40
2022-10-17T15:05:17.418Z,22.20
2022-10-17T15:07:44.485Z,22.10
2022-10-17T15:11:13.603Z,22.00
2022-10-17T15:13:45.375Z,21.90
2022-10-17T15:16:20.187Z,21.80
2022-10-17T15:18:47.500Z,21.70
2022-10-17T15:21:26.479Z,21.70
2022-10-17T15:24:01.835Z,21.70
2022-10-17T15:26:37.443Z,21.60
2022-10-17T15:29:04.821Z,21.60
2022-10-17T15:31:31.994Z,21.60
2022-10-17T15:33:58.978Z,21.50
2022-10-17T15:36:34.129Z,21.40
2022-10-17T15:39:02.190Z,21.40
2022-10-17T15:41:30.981Z,21.30
2022-10-17T15:43:58.647Z,21.30
2022-10-17T15:46:28.848Z,21.20
2022-10-17T15:48:57.346Z,21.20
2022-10-17T15:51:24.504Z,21.10
2022-10-17T15:53:51.522Z,21.10
2022-10-17T15:56:49.733Z,21.00
2022-10-17T15:59:20.290Z,20.90
2022-10-17T16:01:48.742Z,20.90
2022-10-17T16:04:16.040Z,20.80
2022-10-17T16:06:43.236Z,20.70
2022-10-17T16:09:10.317Z,20.70
2022-10-17T16:11:40.044Z,20.60
2022-10-17T16:14:08.439Z,20.50
2022-10-17T16:16:35.415Z,20.40
2022-10-17T16:19:02.712Z,20.30
2022-10-17T16:21:33.506Z,20.20
2022-10-17T16:24:26.248Z,20.00
2022-10-17T16:26:53.576Z,19.80
2022-10-17T16:29:20.722Z,19.80
2022-10-17T16:31:47.830Z,19.70
2022-10-17T16:34:15.691Z,19.60
2022-10-17T16:36:42.846Z,19.50
2022-10-17T16:39:09.919Z,19.50
2022-10-17T16:41:39.071Z,19.40
2022-10-17T16:44:09.501Z,19.40
2022-10-17T16:46:37.668Z,19.30
2022-10-17T16:49:09.486Z,19.30
2022-10-17T16:51:39.100Z,19.20
2022-10-17T16:54:06.136Z,19.20
2022-10-17T16:56:33.245Z,19.10
2022-10-17T16:59:01.483Z,19.10
2022-10-17T17:01:31.728Z,19.00
2022-10-17T17:03:58.760Z,18.90
2022-10-17T17:06:28.691Z,18.80
2022-10-17T17:08:56.868Z,18.70
2022-10-17T17:11:27.249Z,18.70
2022-10-17T17:13:58.684Z,18.50
2022-10-17T17:16:27.429Z,18.50
2022-10-17T17:19:17.096Z,18.40
2022-10-17T17:21:50.196Z,18.40
2022-10-17T17:24:20.891Z,18.30
2022-10-17T17:26:55.116Z,18.20
2022-10-17T17:29:23.261Z,18.20
2022-10-17T17:31:50.461Z,18.20
2022-10-17T17:34:18.348Z,18.10
2022-10-17T17:36:45.888Z,18.00
2022-10-17T17:39:14.704Z,18.00
2022-10-17T17:41:42.818Z,17.90
2022-10-17T17:44:15.758Z,17.90
2022-10-17T17:46:44.227Z,17.80
2022-10-17T17:49:11.913Z,17.80
2022-10-17T17:52:42.237Z,17.80
2022-10-17T17:55:09.739Z,17.70
2022-10-17T17:57:37.158Z,17.70
2022-10-17T18:00:05.440Z,17.70
2022-10-17T18:02:32.732Z,17.70
2022-10-17T18:04:59.836Z,17.70
2022-10-17T18:07:26.836Z,17.70
2022-10-17T18:09:53.911Z,17.60
2022-10-17T18:13:25.053Z,17.60
2022-10-17T18:15:56.089Z,17.60
2022-10-17T18:18:23.129Z,17.60
2022-10-17T18:20:50.100Z,17.60
2022-10-17T18:23:18.475Z,17.60
2022-10-17T18:26:02.562Z,17.60
2022-10-17T18:28:30.729Z,17.60
2022-10-17T18:30:58.208Z,17.60
2022-10-17T18:33:25.203Z,17.60
2022-10-17T18:36:55.172Z,17.50
2022-10-17T18:39:22.228Z,17.50
2022-10-17T18:41:49.264Z,17.50
2022-10-17T18:44:17.020Z,17.40
2022-10-17T18:49:15.338Z,17.40
2022-10-17T18:51:44.754Z,17.30
2022-10-17T18:54:14.657Z,17.30
2022-10-17T18:56:45.357Z,17.10
2022-10-17T18:59:12.617Z,17.20
2022-10-17T19:01:39.691Z,17.10
2022-10-17T19:04:06.770Z,17.00
2022-10-17T19:06:33.790Z,17.00
2022-10-17T19:09:02.313Z,17.00
2022-10-17T19:11:30.667Z,16.90
2022-10-17T19:13:59.536Z,16.90
2022-10-17T19:16:34.193Z,16.90
2022-10-17T19:19:04.747Z,16.80
2022-10-17T19:21:31.969Z,16.80
2022-10-17T19:28:16.845Z,16.70
2022-10-17T19:30:43.802Z,16.70
2022-10-17T19:33:10.812Z,16.60
2022-10-17T19:35:38.081Z,16.50
2022-10-17T19:38:05.033Z,16.50
2022-10-17T19:40:32.056Z,16.40
2022-10-17T19:42:59.004Z,16.30
2022-10-17T19:45:26.016Z,16.20
2022-10-17T19:47:52.992Z,16.10
2022-10-17T19:50:19.980Z,16.00
2022-10-17T19:52:47.022Z,15.90
2022-10-17T19:55:14.039Z,15.70
2022-10-17T19:57:41.130Z,15.70
2022-10-17T20:00:08.673Z,15.60
2022-10-17T20:03:08.357Z,15.50
2022-10-17T20:05:38.187Z,15.50
2022-10-17T20:08:05.258Z,15.40
2022-10-17T20:10:32.294Z,15.40
2022-10-17T20:12:59.306Z,15.40
2022-10-17T20:15:26.288Z,15.40
2022-10-17T20:17:54.305Z,15.40
2022-10-17T20:20:21.454Z,15.40
2022-10-17T20:22:48.515Z,15.40
2022-10-17T20:25:15.732Z,15.40
2022-10-17T20:27:42.711Z,15.40
2022-10-17T20:30:10.069Z,15.40
2022-10-17T20:32:39.564Z,15.40
2022-10-17T20:35:08.091Z,15.40
2022-10-17T20:37:41.471Z,15.40
2022-10-17T20:40:33.507Z,15.40
2022-10-17T20:42:57.351Z,15.40
2022-10-17T20:45:37.508Z,15.40
2022-10-17T20:48:15.221Z,15.30
2022-10-17T20:50:43.632Z,15.30
2022-10-17T20:53:35.554Z,15.30
2022-10-17T20:56:18.419Z,15.30
2022-10-17T20:58:45.399Z,15.30
2022-10-17T21:01:12.350Z,15.30
2022-10-17T21:03:43.874Z,15.20
2022-10-17T21:06:13.683Z,15.20
2022-10-17T21:08:40.887Z,15.20
2022-10-17T21:11:14.119Z,15.20
2022-10-17T21:13:41.657Z,15.10
2022-10-17T21:16:14.928Z,15.00
2022-10-17T21:18:42.517Z,15.00
2022-10-17T21:21:37.148Z,14.90
2022-10-17T21:24:07.095Z,14.90
2022-10-17T21:26:36.623Z,14.70
2022-10-17T21:29:05.950Z,14.70
2022-10-17T21:32:19.625Z,14.70
2022-10-17T21:34:58.254Z,14.60
2022-10-17T21:37:25.321Z,14.50
2022-10-17T21:39:52.307Z,14.50
2022-10-17T21:42:19.361Z,14.50
2022-10-17T21:44:46.433Z,14.50
2022-10-17T21:47:15.003Z,14.60
2022-10-17T21:49:42.034Z,14.60
2022-10-17T21:52:09.072Z,14.60
2022-10-17T21:54:36.223Z,14.60
2022-10-17T21:57:03.263Z,14.70
2022-10-17T21:59:32.028Z,14.70
2022-10-17T22:01:59.097Z,14.70
2022-10-17T22:04:26.177Z,14.70
2022-10-17T22:06:53.457Z,14.80
2022-10-17T22:09:24.026Z,14.80
2022-10-17T22:15:40.443Z,14.90
2022-10-17T22:18:08.133Z,14.90
2022-10-17T22:20:35.354Z,14.90
2022-10-17T22:23:02.411Z,14.90
2022-10-17T22:25:29.583Z,14.90
2022-10-17T22:27:56.682Z,14.90
2022-10-17T22:30:23.738Z,14.90
2022-10-17T22:32:50.780Z,14.80
2022-10-17T22:35:17.841Z,14.80
2022-10-17T22:37:44.912Z,14.80
2022-10-17T22:40:12.163Z,14.80
2022-10-17T22:42:39.161Z,14.80
2022-10-17T22:45:06.431Z,14.70
2022-10-17T22:47:33.560Z,14.70
2022-10-17T22:50:00.670Z,14.70
2022-10-17T22:52:27.873Z,14.70
2022-10-17T22:54:55.009Z,14.70
2022-10-17T22:57:21.985Z,14.70
2022-10-17T22:59:49.084Z,14.70
2022-10-17T23:02:16.117Z,14.70
2022-10-17T23:04:43.161Z,14.70
2022-10-17T23:07:12.605Z,14.70
2022-10-17T23:09:40.322Z,14.70
2022-10-17T23:12:08.248Z,14.60
2022-10-17T23:14:39.009Z,14.60
2022-10-17T23:17:06.064Z,14.60
2022-10-17T23:19:34.048Z,14.60
2022-10-17T23:22:02.444Z,14.60
2022-10-17T23:24:29.708Z,14.50
2022-10-17T23:26:57.311Z,14.50
2022-10-17T23:29:25.265Z,14.50
2022-10-17T23:31:56.159Z,14.40
2022-10-17T23:34:23.236Z,14.40
2022-10-17T23:36:51.634Z,14.30
2022-10-17T23:39:19.032Z,14.30
2022-10-17T23:41:46.271Z,14.30
2022-10-17T23:44:13.515Z,14.20
2022-10-17T23:46:40.562Z,14.10
2022-10-17T23:49:07.602Z,14.10
2022-10-17T23:51:34.562Z,14.00
2022-10-17T23:54:01.643Z,14.00
2022-10-17T23:56:28.617Z,14.00
2022-10-17T23:58:55.589Z,13.90
